Time;durP1;ratioP1;P1;durP2;ratioP2;P2;SDS_P1;SDS_P2;PMS_P1;PMS_P2;Temp;Humidity;BMP_temperature;BMP_pressure;BME280_temperature;BME280_humidity;BME280_pressure;Samples;Min_cycle;Max_cycle;Signal;HPM_P1;HPM_P2
2022/10/21 00:01:32;;;;;;;24.27;22.50;;;;;;;11.91;79.79;100622.41;5063742;28;20055;-76
2022/10/21 00:03:57;;;;;;;24.60;22.30;;;;;;;11.97;79.85;100632.91;5063757;28;20036;-76
2022/10/21 00:06:22;;;;;;;24.27;22.27;;;;;;;11.95;79.21;100627.66;5063505;28;20047;-76
2022/10/21 00:08:48;;;;;;;24.20;22.17;;;;;;;11.93;79.55;100626.78;5061225;28;20041;-76
2022/10/21 00:11:13;;;;;;;25.17;23.27;;;;;;;11.99;79.32;100628.50;5062528;28;20032;-76
2022/10/21 00:13:38;;;;;;;25.60;23.42;;;;;;;11.96;78.80;100628.53;5063845;28;20036;-76
2022/10/21 00:16:11;;;;;;;23.48;21.73;;;;;;;12.01;78.98;100614.34;5062764;28;20036;-76
2022/10/21 00:18:37;;;;;;;;;;;;;;;12.02;78.46;100618.75;5061229;28;20036;-76
2022/10/21 00:21:12;;;;;;;25.30;22.73;;;;;;;12.05;79.48;100617.84;5062779;28;20463;-76
2022/10/21 00:23:37;;;;;;;24.50;22.52;;;;;;;12.04;79.94;100619.63;5044504;28;20477;-76
2022/10/21 00:26:03;;;;;;;24.85;22.90;;;;;;;12.06;79.98;100606.38;5053736;28;20037;-76
2022/10/21 00:28:28;;;;;;;25.55;23.25;;;;;;;12.07;80.58;100602.84;5060388;28;20044;-76
2022/10/21 00:30:54;;;;;;;26.15;24.35;;;;;;;12.01;81.03;100594.97;5062820;28;20089;-76
2022/10/21 00:33:20;;;;;;;25.95;24.08;;;;;;;11.95;81.03;100592.41;5043782;28;20043;-76
2022/10/21 00:35:51;;;;;;;25.42;23.52;;;;;;;11.96;81.74;100578.28;5059300;28;20029;-76
2022/10/21 00:38:16;;;;;;;27.55;25.48;;;;;;;11.99;81.79;100580.88;5063414;28;20409;-76
2022/10/21 00:40:41;;;;;;;24.98;22.92;;;;;;;11.98;81.25;100573.84;5060108;28;20041;-76
2022/10/21 00:43:09;;;;;;;27.77;25.67;;;;;;;12.01;81.20;100584.41;5063763;28;20482;-76
2022/10/21 00:45:34;;;;;;;26.00;23.95;;;;;;;12.00;80.65;100577.38;5064772;28;20037;-76
2022/10/21 00:48:03;;;;;;;25.95;23.90;;;;;;;12.00;81.05;100580.00;5060837;28;20564;-76
2022/10/21 00:50:44;;;;;;;26.83;24.85;;;;;;;11.99;81.04;100571.16;5063142;28;20055;-75
2022/10/21 00:53:14;;;;;;;24.48;22.63;;;;;;;11.97;81.23;100566.78;5066513;28;20085;-76
2022/10/21 00:55:46;;;;;;;24.65;22.75;;;;;;;11.95;80.93;100573.91;5047440;28;20021;-76
2022/10/21 00:58:12;;;;;;;25.70;23.80;;;;;;;11.84;80.17;100574.84;5065179;28;20414;-76
2022/10/21 01:00:37;;;;;;;26.02;23.98;;;;;;;11.86;80.23;100561.63;5061426;28;20047;-76
2022/10/21 01:03:03;;;;;;;25.55;23.52;;;;;;;11.91;80.35;100562.44;5061661;28;20048;-75
2022/10/21 01:05:28;;;;;;;25.75;23.95;;;;;;;11.93;79.90;100550.09;5069030;28;20037;-76
2022/10/21 01:07:55;;;;;;;26.70;24.60;;;;;;;11.97;79.90;100553.56;5066402;28;20024;-75
2022/10/21 01:10:20;;;;;;;25.83;23.73;;;;;;;11.94;80.57;100559.75;5059845;28;20491;-76
2022/10/21 01:13:11;;;;;;;24.98;22.92;;;;;;;11.96;79.43;100558.00;5062213;28;20048;-76
2022/10/21 01:15:46;;;;;;;25.13;23.13;;;;;;;12.01;79.00;100544.72;5060133;28;20039;-76
2022/10/21 01:18:32;;;;;;;25.98;24.05;;;;;;;12.02;78.94;100535.88;5059944;28;20037;-76
2022/10/21 01:21:09;;;;;;;24.77;22.85;;;;;;;11.92;79.40;100539.50;5061911;28;20044;-76
2022/10/21 01:24:03;;;;;;;26.48;24.25;;;;;;;11.88;79.04;100519.31;5064015;28;20086;-76
2022/10/21 01:26:42;;;;;;;26.63;24.38;;;;;;;11.81;78.70;100510.53;5060429;28;20037;-76
2022/10/21 01:29:35;;;;;;;26.88;24.48;;;;;;;11.76;79.80;100491.19;5059496;28;20067;-76
2022/10/21 01:32:25;;;;;;;23.52;21.70;;;;;;;11.69;79.65;100485.13;5060236;28;20044;-76
2022/10/21 01:35:17;;;;;;;25.67;23.67;;;;;;;11.70;80.42;100467.47;5060174;28;20061;-76
2022/10/21 01:38:05;;;;;;;25.77;24.02;;;;;;;11.74;80.66;100483.28;5044787;28;20089;-76
2022/10/21 01:40:40;;;;;;;26.70;24.90;;;;;;;11.76;81.09;100464.75;5059750;28;20175;-76
2022/10/21 01:43:22;;;;;;;25.85;23.98;;;;;;;11.77;81.01;100462.09;5094530;22;20055;-75
2022/10/21 01:45:53;;;;;;;25.05;23.13;;;;;;;11.76;80.84;100457.72;5064310;28;20649;-76
2022/10/21 01:48:31;;;;;;;25.63;23.40;;;;;;;11.78;80.67;100460.31;5099856;28;20497;-75
2022/10/21 01:51:00;;;;;;;24.10;22.27;;;;;;;11.78;80.53;100462.97;5064681;28;20051;-76
2022/10/21 01:53:43;;;;;;;24.38;22.35;;;;;;;11.78;80.61;100469.13;5082405;28;20437;-75
2022/10/21 01:56:11;;;;;;;25.37;23.37;;;;;;;11.77;80.54;100467.38;5098858;28;20074;-76
2022/10/21 01:58:40;;;;;;;26.55;24.73;;;;;;;11.65;81.27;100466.66;5100241;28;20028;-76
2022/10/21 02:01:07;;;;;;;25.15;23.02;;;;;;;11.60;81.21;100453.47;5106131;28;20039;-75
2022/10/21 02:03:36;;;;;;;26.55;24.52;;;;;;;11.65;81.79;100458.72;5105834;28;20024;-75
2022/10/21 02:06:02;;;;;;;26.27;24.27;;;;;;;11.69;82.05;100445.47;5104803;28;20443;-76
2022/10/21 02:08:28;;;;;;;25.95;23.63;;;;;;;11.65;82.25;100440.22;5086015;28;20043;-75
2022/10/21 02:10:57;;;;;;;26.38;24.42;;;;;;;11.70;82.55;100441.91;5106218;28;20044;-75
2022/10/21 02:13:28;;;;;;;26.95;24.88;;;;;;;11.67;81.94;100449.88;5099480;28;20032;-76
2022/10/21 02:15:58;;;;;;;23.97;21.93;;;;;;;11.64;81.71;100449.94;5104659;28;20486;-75
2022/10/21 02:18:24;;;;;;;26.17;24.25;;;;;;;11.61;81.43;100428.81;5105955;28;20368;-75
2022/10/21 02:20:53;;;;;;;26.95;24.75;;;;;;;11.60;81.75;100421.75;5102904;28;20122;-75
2022/10/21 02:23:26;;;;;;;25.55;23.50;;;;;;;11.59;81.52;100426.19;5104439;28;20135;-76
2022/10/21 02:25:52;;;;;;;26.98;24.60;;;;;;;11.58;81.82;100419.16;5103594;28;20043;-75
2022/10/21 02:28:18;;;;;;;27.88;25.73;;;;;;;11.57;82.15;100412.09;5102985;28;20126;-75
2022/10/21 02:31:06;;;;;;;27.13;25.00;;;;;;;11.59;81.42;100406.81;5106162;28;20027;-75
2022/10/21 02:33:59;;;;;;;24.92;23.05;;;;;;;11.51;81.74;100417.47;5106052;28;20036;-75
2022/10/21 02:36:38;;;;;;;25.85;24.02;;;;;;;11.56;81.56;100428.00;5089014;28;20422;-75
2022/10/21 02:39:13;;;;;;;25.73;23.67;;;;;;;11.52;81.21;100439.50;5105281;28;20096;-76
2022/10/21 02:41:42;;;;;;;27.10;25.15;;;;;;;11.57;81.94;100449.09;5100073;28;20522;-75
2022/10/21 02:44:08;;;;;;;26.17;24.17;;;;;;;11.58;81.57;100434.13;5101008;28;20207;-75
2022/10/21 02:46:36;;;;;;;25.90;24.05;;;;;;;11.62;81.97;100449.94;5103078;28;20131;-75
2022/10/21 02:49:02;;;;;;;26.77;24.67;;;;;;;11.69;81.45;100453.38;5105664;28;20450;-75
2022/10/21 02:51:27;;;;;;;27.23;25.08;;;;;;;11.62;81.54;100441.13;5102527;28;20059;-75
2022/10/21 02:53:53;;;;;;;27.52;25.23;;;;;;;11.60;81.99;100446.41;5103079;28;20040;-75
2022/10/21 02:56:18;;;;;;;25.50;23.42;;;;;;;11.61;82.00;100447.31;5104084;28;20039;-76
2022/10/21 02:58:43;;;;;;;26.20;24.00;;;;;;;11.64;81.73;100442.00;5104177;28;20085;-75
2022/10/21 03:01:08;;;;;;;25.08;23.13;;;;;;;11.65;80.91;100445.50;5103142;28;20043;-75
2022/10/21 03:03:34;;;;;;;26.73;24.83;;;;;;;11.73;81.14;100439.22;5068325;28;20039;-75
2022/10/21 03:05:59;;;;;;;27.98;25.50;;;;;;;11.79;81.08;100441.81;5105373;28;20035;-75
2022/10/21 03:08:24;;;;;;;28.08;25.48;;;;;;;11.87;80.97;100444.41;5102190;28;20047;-76
2022/10/21 03:10:50;;;;;;;28.45;26.15;;;;;;;11.89;80.83;100441.72;5103709;28;20032;-75
2022/10/21 03:13:16;;;;;;;27.05;24.73;;;;;;;11.91;80.91;100426.72;5105642;28;20047;-74
2022/10/21 03:15:41;;;;;;;25.83;23.67;;;;;;;11.94;80.49;100414.31;5102836;28;20040;-75
2022/10/21 03:18:07;;;;;;;26.67;24.48;;;;;;;11.89;79.34;100415.25;5103869;28;20035;-75
2022/10/21 03:20:32;;;;;;;24.42;22.65;;;;;;;11.92;79.76;100417.88;5107588;28;20038;-75
2022/10/21 03:22:57;;;;;;;23.55;21.85;;;;;;;11.94;79.40;100418.72;5091042;28;20032;-76
2022/10/21 03:25:23;;;;;;;25.67;23.58;;;;;;;11.90;79.32;100419.69;5095984;28;20138;-76
2022/10/21 03:27:49;;;;;;;24.63;22.52;;;;;;;11.82;79.43;100428.53;5103694;28;20051;-76
2022/10/21 03:30:14;;;;;;;27.33;25.02;;;;;;;11.79;79.88;100415.38;5103433;28;20081;-75
2022/10/21 03:32:40;;;;;;;26.08;23.98;;;;;;;11.74;80.30;100409.25;5102399;28;20444;-76
2022/10/21 03:35:06;;;;;;;26.80;24.80;;;;;;;11.77;80.55;100414.50;5102876;28;20039;-76
2022/10/21 03:37:31;;;;;;;28.48;26.17;;;;;;;11.77;80.54;100419.78;5104452;28;20028;-76
2022/10/21 03:39:56;;;;;;;24.70;22.90;;;;;;;11.69;80.73;100413.75;5101803;28;20089;-76
2022/10/21 03:42:22;;;;;;;27.23;25.13;;;;;;;11.72;81.18;100389.91;5103458;28;20035;-75
2022/10/21 03:44:47;;;;;;;26.17;24.17;;;;;;;11.77;80.99;100395.13;5103751;28;20119;-75
2022/10/21 03:47:13;;;;;;;26.63;24.73;;;;;;;11.83;81.01;100381.81;5103138;28;20035;-75
2022/10/21 03:49:38;;;;;;;26.35;24.45;;;;;;;11.80;80.34;100393.31;5105338;28;20039;-76
2022/10/21 03:52:03;;;;;;;25.30;23.45;;;;;;;11.83;80.83;100387.09;5103745;28;20069;-76
2022/10/21 03:54:28;;;;;;;26.95;24.85;;;;;;;11.81;80.64;100384.47;5096966;28;20054;-76
2022/10/21 03:56:54;;;;;;;26.30;23.88;;;;;;;11.77;80.68;100384.56;5101069;28;20031;-76
2022/10/21 03:59:19;;;;;;;26.73;24.83;;;;;;;11.80;80.35;100388.03;5107312;28;20039;-76
2022/10/21 04:01:44;;;;;;;26.88;24.48;;;;;;;11.83;80.89;100377.41;5102560;28;20042;-76
2022/10/21 04:04:10;;;;;;;25.17;23.30;;;;;;;11.84;80.28;100368.59;5101796;28;20040;-76
2022/10/21 04:06:35;;;;;;;25.77;23.45;;;;;;;11.89;80.48;100375.59;5103826;28;20051;-76
2022/10/21 04:09:00;;;;;;;25.63;23.83;;;;;;;11.82;80.55;100373.03;5100853;28;20111;-76
2022/10/21 04:11:26;;;;;;;25.05;23.13;;;;;;;11.86;80.97;100368.59;5103800;28;20119;-76
2022/10/21 04:13:51;;;;;;;25.92;23.95;;;;;;;11.86;80.98;100371.22;5106734;28;20481;-76
2022/10/21 04:16:19;;;;;;;26.65;24.55;;;;;;;11.79;81.16;100370.41;5100302;28;20402;-77
2022/10/21 04:18:44;;;;;;;26.90;24.80;;;;;;;11.81;80.86;100371.25;5096788;28;20060;-76
2022/10/21 04:21:10;;;;;;;28.05;25.75;;;;;;;11.75;80.98;100357.25;5102778;28;20071;-76
2022/10/21 04:23:35;;;;;;;27.20;25.17;;;;;;;11.84;81.24;100357.09;5100713;28;20040;-76
2022/10/21 04:26:02;;;;;;;26.60;24.60;;;;;;;11.90;81.05;100357.06;5076674;28;20024;-76
2022/10/21 04:28:27;;;;;;;30.38;27.63;;;;;;;11.91;80.95;100347.38;5103106;28;20092;-76
2022/10/21 04:30:52;;;;;;;28.67;26.35;;;;;;;11.93;80.68;100340.28;5099839;28;20435;-76
2022/10/21 04:33:18;;;;;;;25.83;23.98;;;;;;;11.93;80.65;100335.88;5100893;28;21022;-76
2022/10/21 04:35:43;;;;;;;28.02;25.92;;;;;;;11.91;80.91;100347.38;5102017;28;20474;-76
2022/10/21 04:38:09;;;;;;;27.42;25.05;;;;;;;11.90;80.22;100349.16;5100311;28;20075;-77
2022/10/21 04:40:34;;;;;;;28.88;26.45;;;;;;;11.84;80.27;100336.84;5103551;28;20126;-77
2022/10/21 04:42:59;;;;;;;27.50;25.08;;;;;;;11.84;80.07;100342.16;5099541;28;20024;-77
2022/10/21 04:45:25;;;;;;;26.75;24.55;;;;;;;11.85;80.10;100341.25;5079461;28;20035;-76
2022/10/21 04:47:50;;;;;;;29.67;27.27;;;;;;;11.83;79.88;100339.50;5102995;28;20039;-77
2022/10/21 04:50:15;;;;;;;25.10;23.23;;;;;;;11.75;79.55;100336.97;5102462;28;20052;-76
2022/10/21 04:52:41;;;;;;;26.95;24.60;;;;;;;11.79;79.65;100324.59;5099559;28;20040;-76
2022/10/21 04:55:07;;;;;;;27.20;24.85;;;;;;;11.85;79.57;100330.66;5104978;28;20024;-75
2022/10/21 04:57:32;;;;;;;25.40;23.45;;;;;;;11.90;79.39;100335.06;5098246;28;20036;-76
2022/10/21 04:59:57;;;;;;;27.02;24.83;;;;;;;11.89;78.91;100350.03;5094496;28;20063;-76
2022/10/21 05:02:23;;;;;;;26.35;24.15;;;;;;;11.93;78.81;100346.44;5103972;28;20035;-76
2022/10/21 05:04:48;;;;;;;28.95;26.33;;;;;;;11.90;79.58;100337.69;5105442;28;20081;-76
2022/10/21 05:07:14;;;;;;;26.85;24.45;;;;;;;11.82;80.85;100341.28;5107369;28;20478;-76
2022/10/21 05:09:39;;;;;;;26.65;24.75;;;;;;;11.82;80.14;100327.19;5105014;28;20035;-76
2022/10/21 05:12:05;;;;;;;28.10;25.30;;;;;;;11.73;81.40;100316.75;5093383;28;20397;-76
2022/10/21 05:14:30;;;;;;;28.27;25.73;;;;;;;11.75;82.42;100320.25;5104116;28;20409;-76
2022/10/21 05:16:55;;;;;;;27.83;25.23;;;;;;;11.79;82.69;100330.75;5100314;28;20671;-76
2022/10/21 05:19:21;;;;;;;26.75;24.48;;;;;;;11.79;82.24;100314.91;5106293;28;20474;-76
2022/10/21 05:21:46;;;;;;;26.98;24.63;;;;;;;11.77;83.23;100302.59;5082724;28;20040;-76
2022/10/21 05:24:13;;;;;;;27.33;25.10;;;;;;;11.76;83.20;100288.50;5102941;28;20046;-76
2022/10/21 05:26:38;;;;;;;26.92;24.52;;;;;;;11.76;83.36;100279.69;5079046;28;20075;-76
2022/10/21 05:29:04;;;;;;;26.75;24.15;;;;;;;11.56;83.89;100282.63;5100668;28;20063;-76
2022/10/21 05:31:29;;;;;;;26.23;24.05;;;;;;;11.52;83.78;100275.63;5098769;28;20036;-76
2022/10/21 05:33:55;;;;;;;27.02;24.92;;;;;;;11.40;84.41;100284.59;5099565;28;20028;-76
2022/10/21 05:36:21;;;;;;;28.77;26.63;;;;;;;11.36;83.74;100289.03;5102805;28;20466;-76
2022/10/21 05:38:46;;;;;;;26.40;24.42;;;;;;;11.34;83.82;100272.38;5106561;28;20110;-76
2022/10/21 05:41:11;;;;;;;26.13;23.90;;;;;;;11.36;84.29;100261.75;5103535;28;20069;-76
2022/10/21 05:43:37;;;;;;;25.60;23.20;;;;;;;11.33;84.03;100275.00;5105090;28;20104;-76
2022/10/21 05:46:03;;;;;;;24.50;22.02;;;;;;;11.36;83.97;100270.53;5104380;28;20043;-77
2022/10/21 05:48:29;;;;;;;25.73;23.45;;;;;;;11.39;83.80;100270.50;5104132;28;20031;-76
2022/10/21 05:50:55;;;;;;;25.98;23.45;;;;;;;11.38;83.25;100283.75;5103297;28;20030;-76
2022/10/21 05:53:22;;;;;;;25.35;22.90;;;;;;;11.38;83.43;100289.91;5106091;28;20032;-76
2022/10/21 05:55:59;;;;;;;24.92;22.88;;;;;;;11.40;83.49;100288.13;5105649;28;20063;-76
2022/10/21 05:58:26;;;;;;;26.50;23.70;;;;;;;11.46;82.94;100286.28;5101956;28;20375;-76
2022/10/21 06:00:55;;;;;;;27.10;24.70;;;;;;;11.50;83.43;100280.06;5092666;28;20035;-75
2022/10/21 06:03:28;;;;;;;25.42;22.98;;;;;;;11.54;83.02;100285.28;5109215;28;20050;-76
2022/10/21 06:05:58;;;;;;;26.85;24.23;;;;;;;11.54;82.77;100285.28;5101902;28;20478;-75
2022/10/21 06:08:23;;;;;;;27.80;25.10;;;;;;;11.50;83.13;100287.97;5108169;28;20111;-76
2022/10/21 06:10:49;;;;;;;27.27;23.98;;;;;;;11.46;83.33;100276.59;5104165;28;20119;-76
2022/10/21 06:13:14;;;;;;;30.42;28.13;;;;;;;11.51;82.92;100273.88;5104845;28;20032;-76
2022/10/21 06:15:39;;;;;;;31.75;29.10;;;;;;;11.46;83.38;100273.06;5082237;28;20051;-76
2022/10/21 06:18:05;;;;;;;30.10;27.45;;;;;;;11.41;82.72;100287.22;5059880;28;20113;-76
2022/10/21 06:20:30;;;;;;;32.15;28.88;;;;;;;11.46;82.77;100294.22;5093147;28;20043;-76
2022/10/21 06:22:58;;;;;;;30.65;28.33;;;;;;;11.49;82.18;100291.53;5102255;28;20035;-77
2022/10/21 06:25:23;;;;;;;30.65;28.05;;;;;;;11.48;82.14;100289.78;5096675;28;20024;-76
2022/10/21 06:27:48;;;;;;;30.73;28.38;;;;;;;11.44;81.39;100288.94;5099895;28;20043;-76
2022/10/21 06:30:14;;;;;;;29.13;26.63;;;;;;;11.39;83.04;100294.28;5101482;28;20046;-76
2022/10/21 06:32:39;;;;;;;34.67;32.17;;;;;;;11.46;83.61;100297.72;5105340;28;20027;-76
2022/10/21 06:35:04;;;;;;;29.60;27.23;;;;;;;11.44;82.98;100302.16;5105683;28;20038;-76
2022/10/21 06:37:30;;;;;;;30.52;27.92;;;;;;;11.54;83.37;100306.44;5104481;28;20039;-77
2022/10/21 06:39:55;;;;;;;50.65;43.55;;;;;;;11.69;82.75;100315.06;5103151;28;20040;-76
2022/10/21 06:42:21;;;;;;;34.40;31.35;;;;;;;11.80;82.65;100313.13;5105707;28;20054;-77
2022/10/21 06:44:46;;;;;;;31.92;29.23;;;;;;;11.89;82.39;100317.41;5102230;28;20036;-76
2022/10/21 06:47:11;;;;;;;32.90;29.92;;;;;;;12.02;82.17;100308.41;5104610;28;20190;-76
2022/10/21 06:49:37;;;;;;;32.72;29.58;;;;;;;12.10;81.68;100322.38;5103417;28;20047;-76
2022/10/21 06:52:02;;;;;;;33.28;30.48;;;;;;;12.23;81.17;100318.63;5103284;28;20032;-76
2022/10/21 06:54:27;;;;;;;45.92;39.63;;;;;;;12.35;81.13;100329.94;5105642;28;20442;-77
2022/10/21 06:56:53;;;;;;;39.08;35.42;;;;;;;12.42;80.73;100350.13;5106233;28;20088;-76
2022/10/21 06:59:18;;;;;;;42.13;37.25;;;;;;;12.47;80.69;100332.34;5102155;28;20032;-76
2022/10/21 07:01:43;;;;;;;44.78;39.85;;;;;;;12.56;80.65;100331.34;5105165;28;20160;-76
2022/10/21 07:04:09;;;;;;;38.22;34.83;;;;;;;12.52;78.87;100330.50;5104576;28;20042;-76
2022/10/21 07:06:35;;;;;;;37.72;34.30;;;;;;;12.44;78.74;100335.97;5098032;28;20089;-77
2022/10/21 07:09:02;;;;;;;32.60;30.02;;;;;;;12.40;76.96;100338.66;5102006;28;20506;-76
2022/10/21 07:11:27;;;;;;;33.85;31.25;;;;;;;12.50;77.62;100346.44;5105011;28;20035;-76
2022/10/21 07:13:52;;;;;;;31.08;28.73;;;;;;;12.57;77.05;100355.13;5101676;28;20035;-76
2022/10/21 07:16:25;;;;;;;33.85;30.92;;;;;;;12.66;77.07;100347.03;5104669;28;20032;-76
2022/10/21 07:18:50;;;;;;;;;;;;;;;12.67;76.24;100334.66;5103488;28;20039;-77
2022/10/21 07:21:17;;;;;;;34.13;31.60;;;;;;;12.76;76.26;100323.91;5108202;28;20301;-76
2022/10/21 07:23:44;;;;;;;34.47;31.67;;;;;;;12.69;76.13;100309.91;5100192;28;20042;-77
2022/10/21 07:26:10;;;;;;;34.80;31.70;;;;;;;12.75;77.15;100308.91;5097915;28;20043;-77
2022/10/21 07:28:35;;;;;;;38.17;34.88;;;;;;;12.84;77.12;100302.59;5104342;28;20031;-76
2022/10/21 07:31:03;;;;;;;33.65;30.85;;;;;;;12.78;76.13;100305.34;5103120;28;20119;-76
2022/10/21 07:33:28;;;;;;;38.67;35.38;;;;;;;12.91;76.66;100298.91;5106757;28;20422;-76
2022/10/21 07:36:05;;;;;;;31.10;28.98;;;;;;;12.96;75.18;100304.97;5102550;28;20110;-77
2022/10/21 07:38:30;;;;;;;33.20;30.60;;;;;;;13.06;75.67;100305.69;5098058;28;20392;-76
2022/10/21 07:40:57;;;;;;;33.08;30.38;;;;;;;13.05;75.80;100314.56;5105411;28;20023;-77
2022/10/21 07:43:22;;;;;;;34.83;31.92;;;;;;;12.96;76.09;100309.41;5086611;22;20045;-74
2022/10/21 07:45:47;;;;;;;30.95;27.77;;;;;;;13.03;76.21;100296.03;5079726;28;20043;-73
2022/10/21 07:48:13;;;;;;;31.60;28.90;;;;;;;12.97;77.26;100301.44;5084300;28;20052;-73
2022/10/21 07:50:38;;;;;;;33.60;30.90;;;;;;;12.97;77.46;100305.84;5081129;28;20055;-73
2022/10/21 07:53:03;;;;;;;30.70;28.38;;;;;;;12.97;77.21;100320.00;5083108;28;20048;-73
2022/10/21 07:55:29;;;;;;;31.95;29.52;;;;;;;12.89;77.14;100311.28;5063269;28;20040;-73
2022/10/21 07:57:54;;;;;;;29.10;26.75;;;;;;;12.83;77.85;100322.00;5061760;28;20048;-73
2022/10/21 08:00:19;;;;;;;31.73;29.23;;;;;;;12.81;77.85;100322.06;5061363;28;20040;-73
2022/10/21 08:02:45;;;;;;;28.48;26.15;;;;;;;12.82;77.39;100315.84;5063714;28;20045;-76
2022/10/21 08:05:10;;;;;;;30.80;28.27;;;;;;;12.83;77.98;100327.31;5063752;28;20029;-76
2022/10/21 08:07:35;;;;;;;30.40;28.10;;;;;;;12.87;77.08;100321.06;5060796;28;20037;-76
2022/10/21 08:10:01;;;;;;;31.25;28.85;;;;;;;12.66;76.94;100323.22;5062667;28;20548;-76
2022/10/21 08:12:26;;;;;;;30.70;28.25;;;;;;;12.62;77.67;100316.22;5062058;28;20049;-76
2022/10/21 08:14:52;;;;;;;32.10;29.33;;;;;;;12.57;77.48;100312.75;5064062;28;20029;-76
2022/10/21 08:17:17;;;;;;;30.50;27.77;;;;;;;12.53;77.97;100305.81;5060474;28;20041;-76
2022/10/21 08:19:42;;;;;;;33.72;30.75;;;;;;;12.60;77.63;100302.16;5063341;28;20143;-76
2022/10/21 08:22:09;;;;;;;34.08;31.38;;;;;;;12.58;78.48;100292.50;5060385;28;20078;-76
2022/10/21 08:24:34;;;;;;;28.42;26.08;;;;;;;12.62;78.40;100299.44;5066284;28;20032;-76
2022/10/21 08:27:00;;;;;;;29.75;27.08;;;;;;;12.68;78.69;100294.94;5061343;28;20041;-76
2022/10/21 08:29:25;;;;;;;33.90;30.67;;;;;;;12.84;77.80;100292.88;5062909;28;20057;-76
2022/10/21 08:31:50;;;;;;;32.95;30.33;;;;;;;13.01;77.81;100287.22;5062755;28;20051;-76
2022/10/21 08:34:16;;;;;;;32.58;29.88;;;;;;;13.18;77.44;100299.25;5063694;28;20044;-76
2022/10/21 08:36:41;;;;;;;33.28;30.83;;;;;;;13.31;77.35;100296.38;5063169;28;20032;-76
2022/10/21 08:39:07;;;;;;;30.52;28.38;;;;;;;13.45;76.60;100279.28;5062652;28;20036;-76
2022/10/21 08:41:47;;;;;;;32.85;30.58;;;;;;;13.56;76.16;100270.19;5061024;28;20549;-76
2022/10/21 08:44:28;;;;;;;35.03;32.42;;;;;;;13.51;75.02;100266.75;5063016;28;20037;-76
2022/10/21 08:47:16;;;;;;;33.00;30.50;;;;;;;13.48;75.07;100265.97;5062158;28;20032;-76
2022/10/21 08:50:00;;;;;;;32.33;29.83;;;;;;;13.58;75.26;100267.50;5061941;28;20039;-76
2022/10/21 08:52:45;;;;;;;32.35;29.88;;;;;;;13.67;75.93;100246.06;5061583;28;20037;-76
2022/10/21 08:55:21;;;;;;;32.70;30.13;;;;;;;13.71;75.83;100249.53;5064413;28;20029;-76
2022/10/21 08:57:48;;;;;;;33.22;30.80;;;;;;;13.57;75.77;100240.13;5059785;28;20110;-76
2022/10/21 09:00:19;;;;;;;30.90;28.35;;;;;;;13.53;76.07;100250.81;5059425;28;20095;-76
2022/10/21 09:03:01;;;;;;;33.65;30.70;;;;;;;13.50;76.39;100243.81;5061963;28;20061;-76
2022/10/21 09:05:34;;;;;;;32.75;30.02;;;;;;;13.49;76.81;100247.38;5072316;28;20043;-76
2022/10/21 09:08:18;;;;;;;30.10;27.67;;;;;;;13.61;76.40;100240.06;5068409;28;20040;-76
2022/10/21 09:10:58;;;;;;;32.67;30.00;;;;;;;13.74;76.29;100236.19;5060455;28;20036;-76
2022/10/21 09:13:49;;;;;;;32.65;29.75;;;;;;;13.89;75.45;100233.19;5063724;28;20039;-75
2022/10/21 09:16:36;;;;;;;34.08;31.13;;;;;;;13.98;74.99;100224.97;5069017;28;20032;-76
2022/10/21 09:19:33;;;;;;;32.58;30.30;;;;;;;14.08;74.83;100216.81;5062425;28;20094;-76
2022/10/21 09:22:32;;;;;;;32.78;29.83;;;;;;;14.14;74.14;100219.28;5040949;28;20044;-75
2022/10/21 09:25:15;;;;;;;33.97;31.38;;;;;;;14.27;74.81;100220.72;5051464;28;20103;-76
2022/10/21 09:27:40;;;;;;;33.53;30.92;;;;;;;14.44;73.76;100215.81;5058542;28;20502;-76
2022/10/21 09:30:06;;;;;;;35.58;32.63;;;;;;;14.57;73.35;100215.53;5061397;28;20048;-76
2022/10/21 09:32:37;;;;;;;36.65;34.00;;;;;;;14.69;72.41;100210.72;5060004;28;20540;-76
2022/10/21 09:35:19;;;;;;;35.50;32.72;;;;;;;14.76;71.87;100207.91;5061671;28;20041;-75
2022/10/21 09:37:50;;;;;;;35.80;33.30;;;;;;;14.80;71.53;100214.88;5059256;28;20048;-76
2022/10/21 09:40:18;;;;;;;35.95;33.38;;;;;;;14.90;71.66;100214.56;5062020;28;20050;-76
2022/10/21 09:42:47;;;;;;;33.42;31.23;;;;;;;14.93;71.23;100215.38;5060670;28;20037;-76
2022/10/21 09:45:32;;;;;;;35.45;32.80;;;;;;;14.87;71.54;100208.47;5077385;28;20029;-76
2022/10/21 09:48:06;;;;;;;33.38;31.02;;;;;;;14.93;70.59;100191.47;5061067;28;20562;-76
2022/10/21 09:50:33;;;;;;;35.60;33.17;;;;;;;15.05;70.97;100189.31;5059021;28;20045;-76
2022/10/21 09:53:05;;;;;;;33.42;31.20;;;;;;;15.21;71.10;100203.03;5059666;28;20507;-76
2022/10/21 09:55:30;;;;;;;33.53;31.23;;;;;;;15.37;71.36;100202.56;5067389;28;20054;-75
2022/10/21 09:58:01;;;;;;;33.50;31.20;;;;;;;15.51;70.71;100195.00;5063099;28;20089;-76
2022/10/21 10:00:46;;;;;;;32.20;30.00;;;;;;;15.52;70.24;100196.75;5059115;28;20056;-76
2022/10/21 10:03:28;;;;;;;32.47;30.15;;;;;;;15.47;68.93;100204.88;5058701;28;20087;-75
2022/10/21 10:05:54;;;;;;;33.72;31.38;;;;;;;15.45;70.53;100197.88;5065525;28;20041;-75
2022/10/21 10:08:27;;;;;;;32.55;30.27;;;;;;;15.50;70.60;100191.47;5065834;28;20033;-76
2022/10/21 10:11:09;;;;;;;32.00;29.52;;;;;;;15.69;70.46;100186.50;5059653;28;20036;-76
2022/10/21 10:13:52;;;;;;;36.10;33.45;;;;;;;15.88;69.75;100185.88;5058633;28;20078;-76
2022/10/21 10:16:29;;;;;;;34.17;31.77;;;;;;;16.01;68.85;100189.88;5061276;28;20402;-76
2022/10/21 10:19:15;;;;;;;36.95;34.17;;;;;;;16.19;69.12;100186.56;5059945;28;20410;-76
2022/10/21 10:21:41;;;;;;;35.85;33.05;;;;;;;16.18;68.21;100187.47;5066106;28;20028;-76
2022/10/21 10:24:15;;;;;;;37.28;34.47;;;;;;;16.28;67.96;100189.84;5067308;28;20540;-76
2022/10/21 10:26:41;;;;;;;36.25;33.55;;;;;;;16.29;67.15;100181.78;5062308;28;20029;-76
2022/10/21 10:29:27;;;;;;;36.83;34.00;;;;;;;16.40;67.64;100184.03;5062707;28;20044;-75
2022/10/21 10:31:56;;;;;;;34.78;32.35;;;;;;;16.38;67.84;100178.78;5068525;28;20028;-76
2022/10/21 10:34:48;;;;;;;33.90;31.50;;;;;;;16.50;67.22;100172.16;5073693;28;20085;-76
2022/10/21 10:37:20;;;;;;;35.80;32.97;;;;;;;16.63;67.85;100173.44;5065889;28;20083;-76
2022/10/21 10:39:47;;;;;;;37.95;35.08;;;;;;;16.81;67.51;100171.91;5065046;28;20032;-75
2022/10/21 10:42:18;;;;;;;41.47;38.17;;;;;;;17.00;66.25;100177.44;5076926;28;20030;-76
2022/10/21 10:44:44;;;;;;;39.13;36.25;;;;;;;17.07;66.76;100186.06;5069497;28;20067;-76
2022/10/21 10:47:24;;;;;;;39.13;36.13;;;;;;;17.06;65.85;100174.53;5066632;28;20399;-76
2022/10/21 10:49:50;;;;;;;37.50;35.13;;;;;;;16.98;65.71;100187.28;5062072;28;20083;-76
2022/10/21 10:52:21;;;;;;;35.25;32.63;;;;;;;16.90;65.13;100177.81;5064300;28;20036;-76
2022/10/21 10:54:47;;;;;;;35.63;32.90;;;;;;;17.03;65.64;100174.66;5065866;28;20494;-76
2022/10/21 10:57:19;;;;;;;37.90;35.35;;;;;;;16.82;65.62;100180.78;5064643;28;20123;-76
2022/10/21 11:00:02;;;;;;;34.85;32.45;;;;;;;16.86;65.55;100172.63;5062325;28;20065;-76
2022/10/21 11:02:39;;;;;;;38.22;35.40;;;;;;;16.90;64.94;100177.81;5043617;28;20072;-75
2022/10/21 11:05:35;;;;;;;40.72;38.40;;;;;;;16.96;63.75;100173.13;5067883;28;20461;-76
2022/10/21 11:08:27;;;;;;;35.97;33.65;;;;;;;17.08;63.81;100166.44;5064148;28;20040;-76
2022/10/21 11:11:00;;;;;;;46.42;43.60;;;;;;;17.02;63.25;100162.22;5046603;28;20037;-76
2022/10/21 11:13:27;;;;;;;35.72;32.55;;;;;;;17.20;64.25;100160.66;5062631;28;20045;-76
2022/10/21 11:16:18;;;;;;;41.83;37.33;;;;;;;17.33;64.22;100158.38;5066618;28;20048;-76
2022/10/21 11:19:12;;;;;;;28.00;25.35;;;;;;;17.16;63.50;100155.50;5069310;28;20032;-76
2022/10/21 11:21:45;;;;;;;35.25;31.95;;;;;;;17.08;64.69;100154.00;5060015;28;20520;-76